• Join FlightAware (Why Join?)
  • Login
  • US Flag 
11:39AM EDT


 

Airport Tracker/Info


-or-


 

Live Flight TrackerFlight Track Log ✈ ZK-PBG ✈ 09-Apr-2013 ✈ YSSY / SYD - NFFN / NAN

Flight Track Log - Related Links

Times and Time Zones

All times are in EDT time to prevent confusion due to time zone crossing. See the ZK-PBG flight status page for this flight to view local times or setup timezone preferences in your user account.

Time Position Orientation Groundspeed Altitude Reporting Facility
EDT Latitude Longitude Course Direction KTS MPH feet Rate Location/Type
06:45PM -33.9752 151.1952 148° Southeast 162 186 500  Level Aus ATC (RADAR)
06:46PM -33.9910 151.2070 125° Southeast 176 203 1,300 1,680 Climbing FlightAware
06:46PM -34.0030 151.2230 132° Southeast 188 216 1,800 1,740 Climbing FlightAware
06:47PM -34.0290 151.2530 136° Southeast 226 260 2,900 2,280 Climbing FlightAware
06:47PM -34.0500 151.2850 128° Southeast 248 285 4,300 3,360 Climbing FlightAware
06:48PM -34.0483 151.3131 128° Southeast 253 291 5,600 2,580 Climbing Aus ATC (RADAR)
06:48PM -34.0410 151.3240 128° Southeast 268 308 5,600 2,220 Level FlightAware
06:48PM -34.0180 151.3500 43° Northeast 265 305 7,000 3,120 Climbing FlightAware
06:48PM -34.0040 151.3650 42° Northeast 266 306 7,700 2,760 Climbing FlightAware
06:49PM -33.9760 151.3940 41° Northeast 280 322 9,100 2,700 Climbing FlightAware
06:49PM -33.9480 151.4240 42° Northeast 287 330 10,400 2,580 Climbing FlightAware
06:50PM -33.9300 151.4570 57° Northeast 291 335 11,500 2,520 Climbing FlightAware
06:50PM -33.9280 151.4780 83° East 293 337 12,100 3,600 Climbing FlightAware
06:50PM -33.9266 151.5237 83° East 298 343 13,600 3,420 Climbing Aus ATC (RADAR)
06:51PM -33.9257 151.5490 87° East 301 346 14,100  Climbing Aus ATC (RADAR)
06:51PM -33.9260 151.5480 87° East 313 360 13,600 780 Descending FlightAware
06:51PM -33.9231 151.6203 87° East 331 381 14,600 1,020 Climbing Aus ATC (RADAR)
06:51PM -33.9230 151.6230 87° East 358 412 14,300 1,560 Descending FlightAware
06:52PM -33.9200 151.7170 88° East 374 430 16,000 2,760 Climbing FlightAware
06:53PM -33.9176 151.7686 88° East 374 430 17,300 2,400 Climbing Aus ATC (RADAR)
06:53PM -33.9170 151.8030 88° East 383 441 17,600 2,520 Climbing FlightAware
06:53PM -33.9151 151.8432 88° East 382 440 18,800 2,220 Climbing Aus ATC (RADAR)
06:53PM -33.9140 151.8740 88° East 389 448 18,900 2,040 Climbing FlightAware
06:54PM -33.9110 151.9522 88° East 394 453 20,500 2,160 Climbing Aus ATC (RADAR)
06:54PM -33.9100 151.9880 88° East 401 461 20,700 1,320 Climbing FlightAware
06:55PM -33.9060 152.0790 87° East 411 473 21,900 2,220 Climbing FlightAware
06:55PM -33.9071 152.1559 87° East 411 473 23,300 1,800 Climbing Aus ATC (RADAR)
06:56PM -33.9070 152.1680 87° East 419 482 23,100 1,680 Descending FlightAware
06:56PM -33.9076 152.2379 87° East 419 482 24,300 1,560 Climbing Aus ATC (RADAR)
06:56PM -33.9080 152.2680 87° East 426 490 24,300 1,620 Level FlightAware
06:57PM -33.9084 152.3759 87° East 420 483 25,900 1,620 Climbing Aus ATC (RADAR)
06:57PM -33.9090 152.3690 87° East 434 499 25,400 1,440 Descending FlightAware
06:58PM -33.9093 152.4659 87° East 433 498 26,800 1,560 Climbing Aus ATC (RADAR)
06:58PM -33.9090 152.4790 87° East 441 507 26,600 780 Descending FlightAware
06:58PM -33.9100 152.5820 91° East 447 514 27,500 1,800 Climbing FlightAware
06:59PM -33.9099 152.6385 91° East 441 507 28,400 1,920 Climbing Aus ATC (RADAR)
06:59PM -33.9087 152.6759 88° East 444 511 28,600 120 Climbing Aus ATC (RADAR)
06:59PM -33.8960 152.7190 88° East 458 527 28,500 720 Descending FlightAware
07:00PM -33.8470 152.8080 56° Northeast 462 532 29,400 1,440 Climbing FlightAware
07:01PM -33.7990 152.8890 56° Northeast 462 532 30,300 2,280 Climbing FlightAware
07:01PM -33.7906 152.9032 56° Northeast 463 533 30,900 2,820 Climbing Aus ATC (RADAR)
07:01PM -33.7717 152.9342 56° Northeast 463 533 31,200 720 Climbing Aus ATC (RADAR)
07:01PM -33.7430 152.9820 56° Northeast 462 532 31,400 900 Climbing FlightAware
07:02PM -33.6890 153.0700 54° Northeast 462 532 32,300 1,560 Climbing FlightAware
07:03PM -33.6525 153.1313 54° Northeast 465 535 33,200 1,020 Climbing Aus ATC (RADAR)
07:03PM -33.6400 153.1530 54° Northeast 464 534 33,000 300 Descending FlightAware
07:03PM -33.6085 153.2042 54° Northeast 465 535 33,400  Climbing Aus ATC (RADAR)
07:04PM -33.5860 153.2420 54° Northeast 466 536 33,000  Descending FlightAware
07:04PM -33.5269 153.3400 54° Northeast 464 534 33,400  Climbing Aus ATC (RADAR)
07:04PM -33.5180 153.3550 54° Northeast 465 535 33,000 -480 Descending FlightAware
07:05PM -33.4670 153.4390 54° Northeast 464 534 33,000 300 Level FlightAware
07:06PM -33.4279 153.5018 54° Northeast 451 519 33,400 540 Climbing Aus ATC (RADAR)
07:06PM -33.4091 153.5325 54° Northeast 450 518 33,400 -1,080 Level Aus ATC (RADAR)
07:06PM -33.4060 153.5380 54° Northeast 463 533 33,000  Descending FlightAware
07:06PM -33.3649 153.6045 54° Northeast 449 517 33,400  Climbing Aus ATC (RADAR)
07:07PM -33.3540 153.6220 54° Northeast 462 532 33,000 -540 Descending FlightAware
07:07PM -33.3110 153.6930 54° Northeast 461 531 33,000 540 Level FlightAware
07:07PM -33.2931 153.7218 54° Northeast 462 532 33,400 540 Climbing Aus ATC (RADAR)
07:08PM -33.2487 153.7933 54° Northeast 461 531 33,400 -660 Level Aus ATC (RADAR)
07:08PM -33.2530 153.7860 54° Northeast 461 531 33,000 -540 Descending FlightAware
07:09PM -33.1990 153.8730 53° Northeast 460 529 33,000  Level FlightAware
07:09PM -33.1380 153.9730 54° Northeast 461 531 33,000 240 Level FlightAware
07:10PM -33.1059 154.0238 54° Northeast 447 514 33,300  Climbing Aus ATC (RADAR)
07:10PM -33.0870 154.0540 54° Northeast 459 528 33,000  Descending FlightAware
07:10PM -33.0598 154.0995 54° Northeast 459 528 33,300 540 Climbing Aus ATC (RADAR)
07:11PM -33.0409 154.1301 54° Northeast 459 528 33,300 -720 Level Aus ATC (RADAR)
07:11PM -33.0330 154.1420 54° Northeast 459 528 33,000  Descending FlightAware
07:11PM -32.9962 154.2013 54° Northeast 461 531 33,300  Climbing Aus ATC (RADAR)
07:12PM -32.9690 154.2450 54° Northeast 462 532 33,000  Descending FlightAware
07:12PM -32.9221 154.3194 54° Northeast 447 514 33,300  Climbing Aus ATC (RADAR)
07:12PM -32.9090 154.3410 54° Northeast 464 534 33,000  Descending FlightAware
07:13PM -32.8750 154.3954 54° Northeast 463 533 33,300  Climbing Aus ATC (RADAR)
07:13PM -32.8540 154.4290 54° Northeast 465 535 33,000 -360 Descending FlightAware
07:14PM -32.8080 154.5030 54° Northeast 466 536 33,000 420 Level FlightAware
07:14PM -32.7973 154.5190 54° Northeast 465 535 33,300 420 Climbing Aus ATC (RADAR)
07:14PM -32.7524 154.5910 54° Northeast 465 535 33,300 -360 Level Aus ATC (RADAR)
07:15PM -32.7340 154.6200 54° Northeast 467 537 33,000 -300 Descending FlightAware
07:15PM -32.6770 154.7100 53° Northeast 468 539 33,000 300 Level FlightAware
07:16PM -32.6486 154.7552 53° Northeast 467 537 33,300 540 Climbing Aus ATC (RADAR)
07:16PM -32.6290 154.7858 53° Northeast 467 537 33,300 -480 Level Aus ATC (RADAR)
07:16PM -32.6020 154.8290 53° Northeast 467 537 33,000 -300 Descending FlightAware
07:17PM -32.5510 154.9090 53° Northeast 466 536 33,000 240 Level FlightAware
07:18PM -32.5004 154.9909 53° Northeast 466 536 33,300  Climbing Aus ATC (RADAR)
07:18PM -32.4960 154.9990 53° Northeast 466 536 33,000  Descending FlightAware
07:18PM -32.4591 155.0641 53° Northeast 459 528 33,300  Climbing Aus ATC (RADAR)
07:19PM -32.4440 155.0870 53° Northeast 466 536 33,000 -360 Descending FlightAware
07:19PM -32.3990 155.1620 55° Northeast 466 536 33,000  Level FlightAware
07:20PM -32.3400 155.2580 54° Northeast 467 537 33,000 240 Level FlightAware
07:20PM -32.3015 155.3233 54° Northeast 465 535 33,300  Climbing Aus ATC (RADAR)
07:21PM -32.2810 155.3570 54° Northeast 471 542 33,000  Descending FlightAware
07:21PM -32.2380 155.4277 54° Northeast 467 537 33,300  Climbing Aus ATC (RADAR)
07:21PM -32.2340 155.4330 54° Northeast 471 542 33,000  Descending FlightAware
07:22PM -32.1935 155.5010 54° Northeast 470 541 33,300  Climbing Aus ATC (RADAR)
07:22PM -32.1750 155.5300 54° Northeast 473 544 33,000 -300 Descending FlightAware
07:23PM -32.1310 155.6010 54° Northeast 473 544 33,000 240 Level FlightAware
07:23PM -32.0717 155.6996 54° Northeast 470 541 33,300  Climbing Aus ATC (RADAR)
07:23PM -32.0870 155.6720 54° Northeast 473 544 33,000 -420 Descending FlightAware
07:24PM -32.0440 155.7430 54° Northeast 473 544 33,000 300 Level FlightAware
07:24PM -31.9920 155.8352 54° Northeast 465 535 33,300  Climbing Aus ATC (RADAR)
07:25PM -32.0000 155.8140 54° Northeast 473 544 33,000 -300 Descending FlightAware
07:26PM -31.9450 155.9030 54° Northeast 473 544 33,000  Level FlightAware
07:26PM -31.9020 155.9740 55° Northeast 473 544 33,000  Level FlightAware
07:27PM -31.8580 156.0450 54° Northeast 473 544 33,000  Level FlightAware
07:28PM -31.8140 156.1160 54° Northeast 473 544 33,000  Level FlightAware
07:28PM -31.7700 156.1870 54° Northeast 473 544 33,000  Level FlightAware
07:29PM -31.7160 156.2750 54° Northeast 473 544 33,000  Level FlightAware
07:30PM -31.6720 156.3460 54° Northeast 473 544 33,000  Level FlightAware
07:30PM -31.6280 156.4160 54° Northeast 473 544 33,000  Level FlightAware
07:31PM -31.4998 156.6185 233° Southwest 33,000  Level Aus ATC (Calculated)
07:31PM -31.5840 156.4870 54° Northeast 473 544 33,000  Level FlightAware
07:34PM -31.3948 156.7886 54° Northeast  Level FlightAware Approximate
07:34PM -31.2548 157.0087 54° Northeast 33,000  Level Aus ATC (Calculated)
07:36PM -31.1197 157.2221 54° Northeast  Level FlightAware Approximate
07:37PM -31.0394 157.3486 53° Northeast  Level FlightAware Approximate
07:37PM -30.9971 157.4915 340° North 37,000  Level Aus ATC (Calculated)
07:38PM -30.9588 157.4749 53° Northeast  Level FlightAware Approximate
07:39PM -30.9804 157.4501 58° Northeast  Level FlightAware Approximate
07:39PM -30.8538 157.7574 249° West 37,000  Level Aus ATC (Calculated)
07:40PM -30.9094 157.5839 58° Northeast  Level FlightAware Approximate
07:41PM -30.7518 157.9456 58° Northeast  Level FlightAware Approximate
07:42PM -30.6797 158.0782 58° Northeast  Level FlightAware Approximate
07:42PM -30.6251 158.1783 138° Southeast 37,000  Level Aus ATC (Calculated)
07:42PM -30.6251 158.1783 58° Northeast 37,000  Level Aus ATC (Calculated)
07:44PM -30.5140 158.3810 58° Northeast  Level FlightAware Approximate
07:45PM -30.4414 158.5129 57° Northeast  Level FlightAware Approximate
07:46PM -30.3687 158.6447 57° Northeast  Level FlightAware Approximate
07:47PM -30.2958 158.7762 57° Northeast  Level FlightAware Approximate
07:48PM -30.2229 158.9076 58° Northeast  Level FlightAware Approximate
07:49PM -30.1498 159.0388 57° Northeast  Level FlightAware Approximate
07:50PM -30.0765 159.1698 57° Northeast  Level FlightAware Approximate
07:51PM -30.0031 159.3006 57° Northeast  Level FlightAware Approximate
07:52PM -29.9296 159.4312 57° Northeast  Level FlightAware Approximate
07:53PM -29.8560 159.5615 57° Northeast  Level FlightAware Approximate
07:54PM -29.7822 159.6917 57° Northeast  Level FlightAware Approximate
07:55PM -29.7083 159.8217 57° Northeast  Level FlightAware Approximate
07:55PM -29.6835 159.8654 57° Northeast 37,000  Level Aus ATC (Calculated)
07:55PM -29.6266 159.9650 57° Northeast 37,000  Level Aus ATC (Calculated)
07:57PM -29.5451 160.1074 57° Northeast  Level FlightAware Approximate
07:57PM -29.4886 160.2059 57° Northeast 37,000  Level Aus ATC (Calculated)
07:58PM -29.4584 160.2585 57° Northeast  Level FlightAware Approximate
07:59PM -29.3732 160.4061 57° Northeast  Level FlightAware Approximate
08:00PM -29.2986 160.5351 56° Northeast  Level FlightAware Approximate
08:01PM -29.2239 160.6639 56° Northeast  Level FlightAware Approximate
08:02PM -29.1491 160.7924 56° Northeast  Level FlightAware Approximate
08:03PM -29.0742 160.9209 56° Northeast  Level FlightAware Approximate
08:03PM -29.0210 161.0116 56° Northeast 37,000  Level Aus ATC (Calculated)
08:05PM -28.8982 161.2207 56° Northeast  Level FlightAware Approximate
08:05PM -28.8365 161.3252 56° Northeast 37,000  Level Aus ATC (Calculated)
08:06PM -28.8228 161.3484 56° Northeast  Level FlightAware Approximate
08:07PM -28.7409 161.4869 56° Northeast  Level FlightAware Approximate
08:08PM -28.6653 161.6142 56° Northeast  Level FlightAware Approximate
08:09PM -28.5896 161.7415 56° Northeast  Level FlightAware Approximate
08:09PM -28.6020 161.7206 56° Northeast 37,000  Level Aus ATC (Calculated)
08:10PM -28.5137 161.8685 56° Northeast  Level FlightAware Approximate
08:11PM -28.4515 161.9724 56° Northeast  Level FlightAware Approximate
08:12PM -28.3754 162.0991 56° Northeast  Level FlightAware Approximate
08:13PM -28.2993 162.2256 56° Northeast  Level FlightAware Approximate
08:14PM -28.2230 162.3519 56° Northeast  Level FlightAware Approximate
08:15PM -28.1478 162.4790 56° Northeast  Level Estimated
08:16PM -28.0718 162.6054 56° Northeast  Level FlightAware Approximate
08:17PM -27.9957 162.7316 56° Northeast  Level FlightAware Approximate
08:18PM -27.9195 162.8577 56° Northeast  Level FlightAware Approximate
08:19PM -27.8431 162.9835 56° Northeast  Level FlightAware Approximate
08:20PM -27.7667 163.1092 56° Northeast  Level FlightAware Approximate
08:20PM -27.6895 163.2279 143° Southeast 37,000  Level Aus ATC (Calculated)
08:20PM -27.6895 163.2279 55° Northeast 37,000  Level Aus ATC (Calculated)
08:22PM -27.6001 163.3741 55° Northeast  Level FlightAware Approximate
08:23PM -27.5234 163.4993 55° Northeast  Level FlightAware Approximate
08:24PM -27.4465 163.6243 55° Northeast  Level FlightAware Approximate
08:25PM -27.3696 163.7492 55° Northeast  Level FlightAware Approximate
08:26PM -27.2925 163.8738 55° Northeast  Level FlightAware Approximate
08:27PM -27.2153 163.9983 55° Northeast  Level FlightAware Approximate
08:28PM -27.1381 164.1226 55° Northeast  Level FlightAware Approximate
08:29PM -27.0607 164.2468 55° Northeast  Level FlightAware Approximate
08:30PM -26.9832 164.3707 55° Northeast  Level FlightAware Approximate
08:31PM -26.9056 164.4945 55° Northeast  Level FlightAware Approximate
08:32PM -26.8279 164.6182 55° Northeast  Level FlightAware Approximate
08:33PM -26.7500 164.7416 55° Northeast  Level FlightAware Approximate
08:34PM -26.6721 164.8649 55° Northeast  Level FlightAware Approximate
08:35PM -26.5941 164.9880 55° Northeast  Level FlightAware Approximate
08:36PM -26.5160 165.1110 55° Northeast  Level FlightAware Approximate
08:37PM -26.4377 165.2338 55° Northeast  Level FlightAware Approximate
08:38PM -26.3594 165.3564 55° Northeast  Level FlightAware Approximate
08:39PM -26.2809 165.4789 54° Northeast  Level FlightAware Approximate
08:40PM -26.2024 165.6011 54° Northeast  Level FlightAware Approximate
08:41PM -26.1237 165.7233 54° Northeast  Level FlightAware Approximate
08:42PM -26.0449 165.8452 54° Northeast  Level FlightAware Approximate
08:43PM -25.9669 165.9677 53° Northeast  Level Estimated
08:44PM -25.8879 166.0893 54° Northeast  Level FlightAware Approximate
08:45PM -25.8088 166.2107 54° Northeast  Level FlightAware Approximate
08:46PM -25.7296 166.3320 54° Northeast  Level FlightAware Approximate
08:47PM -25.6503 166.4531 54° Northeast  Level FlightAware Approximate
08:48PM -25.5709 166.5741 54° Northeast  Level FlightAware Approximate
08:49PM -25.4914 166.6949 54° Northeast  Level FlightAware Approximate
08:50PM -25.4118 166.8155 54° Northeast  Level FlightAware Approximate
08:51PM -25.3321 166.9360 54° Northeast  Level FlightAware Approximate
08:52PM -25.2523 167.0563 54° Northeast  Level FlightAware Approximate
08:53PM -25.1724 167.1765 54° Northeast  Level FlightAware Approximate
08:54PM -25.0924 167.2965 54° Northeast  Level FlightAware Approximate
08:55PM -25.0123 167.4163 54° Northeast  Level FlightAware Approximate
08:56PM -24.9321 167.5360 54° Northeast  Level FlightAware Approximate
08:57PM -24.8518 167.6555 54° Northeast  Level FlightAware Approximate
08:58PM -24.7715 167.7749 53° Northeast  Level FlightAware Approximate
08:59PM -24.6910 167.8941 53° Northeast  Level FlightAware Approximate
09:00PM -24.6104 168.0132 53° Northeast  Level FlightAware Approximate
09:01PM -24.5298 168.1321 53° Northeast  Level FlightAware Approximate
09:02PM -24.4490 168.2509 53° Northeast  Level FlightAware Approximate
09:03PM -24.3682 168.3695 53° Northeast  Level FlightAware Approximate
09:04PM -24.2872 168.4880 53° Northeast  Level FlightAware Approximate
09:05PM -24.2062 168.6063 53° Northeast  Level FlightAware Approximate
09:06PM -24.1251 168.7244 53° Northeast  Level FlightAware Approximate
09:07PM -24.0439 168.8424 53° Northeast  Level FlightAware Approximate
09:08PM -23.9626 168.9603 53° Northeast  Level FlightAware Approximate
09:09PM -23.8812 169.0780 53° Northeast  Level FlightAware Approximate
09:10PM -23.7997 169.1956 53° Northeast  Level FlightAware Approximate
09:11PM -23.7181 169.3130 53° Northeast  Level FlightAware Approximate
09:12PM -23.6365 169.4303 53° Northeast  Level FlightAware Approximate
09:13PM -23.5547 169.5474 53° Northeast  Level FlightAware Approximate
09:14PM -23.4729 169.6644 53° Northeast  Level FlightAware Approximate
09:15PM -23.3922 169.7822 52° Northeast  Level Estimated
09:16PM -23.3102 169.8988 53° Northeast  Level FlightAware Approximate
09:17PM -23.2280 170.0154 53° Northeast  Level FlightAware Approximate
09:18PM -23.1458 170.1317 52° Northeast  Level FlightAware Approximate
09:19PM -23.0635 170.2480 52° Northeast  Level FlightAware Approximate
09:20PM -22.9811 170.3641 52° Northeast  Level FlightAware Approximate
09:21PM -22.8987 170.4800 52° Northeast  Level FlightAware Approximate
09:22PM -22.8161 170.5958 52° Northeast  Level FlightAware Approximate
09:23PM -22.7335 170.7115 52° Northeast  Level FlightAware Approximate
09:24PM -22.6508 170.8270 52° Northeast  Level FlightAware Approximate
09:25PM -22.5680 170.9424 52° Northeast  Level FlightAware Approximate
09:26PM -22.4851 171.0577 52° Northeast  Level FlightAware Approximate
09:27PM -22.4021 171.1728 52° Northeast  Level FlightAware Approximate
09:28PM -22.3191 171.2877 52° Northeast  Level FlightAware Approximate
09:29PM -22.2360 171.4026 52° Northeast  Level FlightAware Approximate
09:30PM -22.1528 171.5173 52° Northeast  Level FlightAware Approximate
09:31PM -22.0695 171.6318 52° Northeast  Level FlightAware Approximate
09:32PM -21.9861 171.7463 52° Northeast  Level FlightAware Approximate
09:33PM -21.9027 171.8606 52° Northeast  Level FlightAware Approximate
09:34PM -21.8191 171.9747 52° Northeast  Level FlightAware Approximate
09:35PM -21.7355 172.0888 52° Northeast  Level FlightAware Approximate
09:36PM -21.6518 172.2027 52° Northeast  Level FlightAware Approximate
09:37PM -21.5681 172.3164 52° Northeast  Level FlightAware Approximate
09:38PM -21.4842 172.4301 52° Northeast  Level FlightAware Approximate
09:39PM -21.4003 172.5435 52° Northeast  Level FlightAware Approximate
09:40PM -21.3164 172.6569 52° Northeast  Level FlightAware Approximate
09:41PM -21.2323 172.7702 51° Northeast  Level FlightAware Approximate
09:42PM -21.1481 172.8833 51° Northeast  Level FlightAware Approximate
09:43PM -21.0639 172.9962 51° Northeast  Level FlightAware Approximate
09:44PM -20.9797 173.1091 51° Northeast  Level FlightAware Approximate
09:45PM -20.8953 173.2218 51° Northeast  Level FlightAware Approximate
09:46PM -20.8109 173.3344 51° Northeast  Level FlightAware Approximate
09:47PM -20.7263 173.4469 51° Northeast  Level FlightAware Approximate
09:48PM -20.6418 173.5593 51° Northeast  Level FlightAware Approximate
09:49PM -20.5571 173.6715 51° Northeast  Level FlightAware Approximate
09:50PM -20.4724 173.7836 51° Northeast  Level FlightAware Approximate
09:51PM -20.3876 173.8956 51° Northeast  Level FlightAware Approximate
09:52PM -20.3027 174.0074 51° Northeast  Level FlightAware Approximate
09:53PM -20.2178 174.1192 51° Northeast  Level FlightAware Approximate
09:54PM -20.1327 174.2308 51° Northeast  Level FlightAware Approximate
09:55PM -20.0506 174.3447 50° Northeast  Level Estimated
09:56PM -19.9653 174.4559 51° Northeast  Level FlightAware Approximate
09:57PM -19.8799 174.5671 51° Northeast  Level FlightAware Approximate
09:58PM -19.7945 174.6781 51° Northeast  Level FlightAware Approximate
09:59PM -19.7090 174.7890 51° Northeast  Level FlightAware Approximate
10:00PM -19.6235 174.8998 51° Northeast  Level FlightAware Approximate
10:01PM -19.5379 175.0105 51° Northeast  Level FlightAware Approximate
10:02PM -19.4522 175.1210 51° Northeast  Level FlightAware Approximate
10:03PM -19.3664 175.2314 51° Northeast  Level FlightAware Approximate
10:04PM -19.2806 175.3418 51° Northeast  Level FlightAware Approximate
10:05PM -19.1947 175.4520 50° Northeast  Level FlightAware Approximate
10:06PM -19.1088 175.5620 50° Northeast  Level FlightAware Approximate
10:07PM -19.0228 175.6720 50° Northeast  Level FlightAware Approximate
10:08PM -18.9420 175.7863 156° South  Level Estimated
10:09PM -18.8612 175.9005 156° South  Level Estimated
10:10PM -18.7803 176.0146 156° South  Level Estimated
10:11PM -18.6993 176.1286 156° South  Level Estimated
10:12PM -18.6183 176.2424 156° South  Level Estimated
10:13PM -18.5372 176.3562 156° South  Level Estimated
10:14PM -18.4561 176.4698 156° South  Level Estimated
10:15PM -18.3748 176.5833 156° South  Level Estimated
10:16PM -18.2935 176.6968 156° South  Level Estimated
10:17PM -18.2122 176.8101 156° South  Level Estimated
10:18PM -18.1307 176.9233 156° South  Level Estimated
10:19PM -18.0492 177.0364 156° South  Level Estimated
10:20PM -17.9677 177.1494 156° South  Level Estimated
10:21PM -17.8860 177.2623 156° South  Level Estimated
10:22PM -17.8043 177.3751 156° South  Level Estimated
10:23PM -17.7564 177.4433 156° South  Level FlightAware Approximate
10:24PM -17.7547 177.4436 156° South  Level Estimated
10:25PM -17.7564 177.4433 156° South  Level FlightAware Approximate
10:26PM -17.7547 177.4436 156° South  Level Estimated
10:27PM -17.7564 177.4433 156° South  Level FlightAware Approximate
10:28PM -17.7547 177.4436 156° South  Level Estimated
10:29PM -17.7564 177.4433 156° South  Level FlightAware Approximate